sensor_id;sensor_type;location;lat;lon;timestamp;P1;P2;P0
68698;PMS7003;55680;48.850;2.310;2022-10-16T00:00:19;0.25;0.25;0.00
68698;PMS7003;55680;48.850;2.310;2022-10-16T00:02:44;0.00;0.00;0.00
68698;PMS7003;55680;48.850;2.310;2022-10-16T00:05:09;1.00;1.00;0.00
68698;PMS7003;55680;48.850;2.310;2022-10-16T00:07:34;0.00;0.00;0.00
68698;PMS7003;55680;48.850;2.310;2022-10-16T00:10:00;0.00;0.00;0.00
68698;PMS7003;55680;48.850;2.310;2022-10-16T00:12:25;0.00;0.00;0.00
68698;PMS7003;55680;48.850;2.310;2022-10-16T00:14:50;0.00;0.00;0.00
68698;PMS7003;55680;48.850;2.310;2022-10-16T00:17:16;0.00;0.00;0.00
68698;PMS7003;55680;48.850;2.310;2022-10-16T00:19:41;2.00;0.67;0.00
68698;PMS7003;55680;48.850;2.310;2022-10-16T00:22:06;0.00;0.00;0.00
68698;PMS7003;55680;48.850;2.310;2022-10-16T00:24:31;0.00;0.00;0.00
68698;PMS7003;55680;48.850;2.310;2022-10-16T00:26:56;1.33;0.00;0.00
68698;PMS7003;55680;48.850;2.310;2022-10-16T00:29:21;0.00;0.00;0.00
68698;PMS7003;55680;48.850;2.310;2022-10-16T00:31:47;2.00;0.25;0.00
68698;PMS7003;55680;48.850;2.310;2022-10-16T00:34:12;0.00;0.00;0.00
68698;PMS7003;55680;48.850;2.310;2022-10-16T00:36:37;0.25;0.00;0.00
68698;PMS7003;55680;48.850;2.310;2022-10-16T00:39:03;0.00;0.00;0.00
68698;PMS7003;55680;48.850;2.310;2022-10-16T00:41:28;1.00;1.00;0.00
68698;PMS7003;55680;48.850;2.310;2022-10-16T00:43:55;0.00;0.00;0.00
68698;PMS7003;55680;48.850;2.310;2022-10-16T00:46:25;0.00;0.00;0.00
68698;PMS7003;55680;48.850;2.310;2022-10-16T00:49:13;1.00;1.00;0.00
68698;PMS7003;55680;48.850;2.310;2022-10-16T00:51:40;0.00;0.00;0.00
68698;PMS7003;55680;48.850;2.310;2022-10-16T00:54:08;1.00;1.00;0.25
68698;PMS7003;55680;48.850;2.310;2022-10-16T00:56:33;0.00;0.00;0.00
68698;PMS7003;55680;48.850;2.310;2022-10-16T00:58:59;2.00;0.00;0.00
68698;PMS7003;55680;48.850;2.310;2022-10-16T01:01:26;0.00;0.00;0.00
68698;PMS7003;55680;48.850;2.310;2022-10-16T01:03:51;0.00;0.00;0.00
68698;PMS7003;55680;48.850;2.310;2022-10-16T01:06:19;0.00;0.00;0.00
68698;PMS7003;55680;48.850;2.310;2022-10-16T01:08:53;0.25;0.25;0.00
68698;PMS7003;55680;48.850;2.310;2022-10-16T01:11:26;2.25;0.00;0.00
68698;PMS7003;55680;48.850;2.310;2022-10-16T01:13:53;0.00;0.00;0.00
68698;PMS7003;55680;48.850;2.310;2022-10-16T01:16:27;0.00;0.00;0.00
68698;PMS7003;55680;48.850;2.310;2022-10-16T01:18:57;0.25;0.25;0.00
68698;PMS7003;55680;48.850;2.310;2022-10-16T01:21:27;0.00;0.00;0.00
68698;PMS7003;55680;48.850;2.310;2022-10-16T01:29:11;0.00;0.00;0.00
68698;PMS7003;55680;48.850;2.310;2022-10-16T01:31:40;1.00;1.00;0.00
68698;PMS7003;55680;48.850;2.310;2022-10-16T01:34:15;0.50;0.50;0.00
68698;PMS7003;55680;48.850;2.310;2022-10-16T01:36:43;0.00;0.00;0.00
68698;PMS7003;55680;48.850;2.310;2022-10-16T01:39:10;0.00;0.00;0.00
68698;PMS7003;55680;48.850;2.310;2022-10-16T01:41:40;1.00;0.00;0.00
68698;PMS7003;55680;48.850;2.310;2022-10-16T01:46:31;0.00;0.00;0.00
68698;PMS7003;55680;48.850;2.310;2022-10-16T01:48:58;0.00;0.00;0.00
68698;PMS7003;55680;48.850;2.310;2022-10-16T01:51:24;0.00;0.00;0.00
68698;PMS7003;55680;48.850;2.310;2022-10-16T01:53:51;0.00;0.00;0.00
68698;PMS7003;55680;48.850;2.310;2022-10-16T01:56:17;0.00;0.00;0.00
68698;PMS7003;55680;48.850;2.310;2022-10-16T01:58:46;0.00;0.00;0.00
68698;PMS7003;55680;48.850;2.310;2022-10-16T02:01:13;0.00;0.00;0.00
68698;PMS7003;55680;48.850;2.310;2022-10-16T02:03:40;0.00;0.00;0.00
68698;PMS7003;55680;48.850;2.310;2022-10-16T02:06:07;0.00;0.00;0.00
68698;PMS7003;55680;48.850;2.310;2022-10-16T02:08:33;0.00;0.00;0.00
68698;PMS7003;55680;48.850;2.310;2022-10-16T02:11:00;0.00;0.00;0.00
68698;PMS7003;55680;48.850;2.310;2022-10-16T02:13:39;0.00;0.00;0.00
68698;PMS7003;55680;48.850;2.310;2022-10-16T02:16:06;0.00;0.00;0.00
68698;PMS7003;55680;48.850;2.310;2022-10-16T02:18:31;1.00;0.00;0.00
68698;PMS7003;55680;48.850;2.310;2022-10-16T02:21:07;0.00;0.00;0.00
68698;PMS7003;55680;48.850;2.310;2022-10-16T02:23:39;0.00;0.00;0.00
68698;PMS7003;55680;48.850;2.310;2022-10-16T02:26:09;0.00;0.00;0.00
68698;PMS7003;55680;48.850;2.310;2022-10-16T02:28:47;0.00;0.00;0.00
68698;PMS7003;55680;48.850;2.310;2022-10-16T02:31:14;0.00;0.00;0.00
68698;PMS7003;55680;48.850;2.310;2022-10-16T02:33:41;0.00;0.00;0.00
68698;PMS7003;55680;48.850;2.310;2022-10-16T02:36:08;0.00;0.00;0.00
68698;PMS7003;55680;48.850;2.310;2022-10-16T02:38:34;2.00;0.00;0.00
68698;PMS7003;55680;48.850;2.310;2022-10-16T02:41:01;0.50;0.50;0.00
68698;PMS7003;55680;48.850;2.310;2022-10-16T02:43:26;0.00;0.00;0.00
68698;PMS7003;55680;48.850;2.310;2022-10-16T02:45:51;0.00;0.00;0.00
68698;PMS7003;55680;48.850;2.310;2022-10-16T02:48:17;0.00;0.00;0.00
68698;PMS7003;55680;48.850;2.310;2022-10-16T02:50:42;0.00;0.00;0.00
68698;PMS7003;55680;48.850;2.310;2022-10-16T02:53:07;0.00;0.00;0.00
68698;PMS7003;55680;48.850;2.310;2022-10-16T02:55:33;0.00;0.00;0.00
68698;PMS7003;55680;48.850;2.310;2022-10-16T02:57:58;0.00;0.00;0.00
68698;PMS7003;55680;48.850;2.310;2022-10-16T03:00:23;0.00;0.00;0.00
68698;PMS7003;55680;48.850;2.310;2022-10-16T03:02:49;0.25;0.00;0.00
68698;PMS7003;55680;48.850;2.310;2022-10-16T03:05:15;0.00;0.00;0.00
68698;PMS7003;55680;48.850;2.310;2022-10-16T03:07:40;1.00;0.00;0.00
68698;PMS7003;55680;48.850;2.310;2022-10-16T03:10:06;0.75;0.00;0.00
68698;PMS7003;55680;48.850;2.310;2022-10-16T03:12:31;0.00;0.00;0.00
68698;PMS7003;55680;48.850;2.310;2022-10-16T03:14:56;0.00;0.00;0.00
68698;PMS7003;55680;48.850;2.310;2022-10-16T03:17:22;1.00;0.00;0.00
68698;PMS7003;55680;48.850;2.310;2022-10-16T03:19:47;0.00;0.00;0.00
68698;PMS7003;55680;48.850;2.310;2022-10-16T03:22:12;0.00;0.00;0.00
68698;PMS7003;55680;48.850;2.310;2022-10-16T03:24:38;0.00;0.00;0.00
68698;PMS7003;55680;48.850;2.310;2022-10-16T03:27:03;0.00;0.00;0.00
68698;PMS7003;55680;48.850;2.310;2022-10-16T03:29:28;0.00;0.00;0.00
68698;PMS7003;55680;48.850;2.310;2022-10-16T03:31:54;0.00;0.00;0.00
68698;PMS7003;55680;48.850;2.310;2022-10-16T03:34:19;0.00;0.00;0.00
68698;PMS7003;55680;48.850;2.310;2022-10-16T03:36:45;0.00;0.00;0.00
68698;PMS7003;55680;48.850;2.310;2022-10-16T03:39:10;0.00;0.00;0.00
68698;PMS7003;55680;48.850;2.310;2022-10-16T03:41:35;0.00;0.00;0.00
68698;PMS7003;55680;48.850;2.310;2022-10-16T03:44:01;0.00;0.00;0.00
68698;PMS7003;55680;48.850;2.310;2022-10-16T03:46:26;0.00;0.00;0.00
68698;PMS7003;55680;48.850;2.310;2022-10-16T03:48:51;0.50;0.00;0.00
68698;PMS7003;55680;48.850;2.310;2022-10-16T03:51:16;1.00;0.00;0.00
68698;PMS7003;55680;48.850;2.310;2022-10-16T03:53:42;0.00;0.00;0.00
68698;PMS7003;55680;48.850;2.310;2022-10-16T03:56:07;1.00;0.00;0.00
68698;PMS7003;55680;48.850;2.310;2022-10-16T03:58:32;0.00;0.00;0.00
68698;PMS7003;55680;48.850;2.310;2022-10-16T04:00:57;1.00;0.00;0.00
68698;PMS7003;55680;48.850;2.310;2022-10-16T04:03:23;0.33;0.00;0.00
68698;PMS7003;55680;48.850;2.310;2022-10-16T04:05:48;0.00;0.00;0.00
68698;PMS7003;55680;48.850;2.310;2022-10-16T04:08:13;0.00;0.00;0.00
68698;PMS7003;55680;48.850;2.310;2022-10-16T04:10:38;0.00;0.00;0.00
68698;PMS7003;55680;48.850;2.310;2022-10-16T04:13:04;1.00;0.00;0.00
68698;PMS7003;55680;48.850;2.310;2022-10-16T04:15:29;0.00;0.00;0.00
68698;PMS7003;55680;48.850;2.310;2022-10-16T04:17:54;0.00;0.00;0.00
68698;PMS7003;55680;48.850;2.310;2022-10-16T04:20:19;0.00;0.00;0.00
68698;PMS7003;55680;48.850;2.310;2022-10-16T04:22:44;0.00;0.00;0.00
68698;PMS7003;55680;48.850;2.310;2022-10-16T04:25:10;0.00;0.00;0.00
68698;PMS7003;55680;48.850;2.310;2022-10-16T04:27:36;0.00;0.00;0.00
68698;PMS7003;55680;48.850;2.310;2022-10-16T04:30:01;0.00;0.00;0.00
68698;PMS7003;55680;48.850;2.310;2022-10-16T04:32:26;0.00;0.00;0.00
68698;PMS7003;55680;48.850;2.310;2022-10-16T04:34:52;0.00;0.00;0.00
68698;PMS7003;55680;48.850;2.310;2022-10-16T04:37:17;0.00;0.00;0.00
68698;PMS7003;55680;48.850;2.310;2022-10-16T04:39:42;0.00;0.00;0.00
68698;PMS7003;55680;48.850;2.310;2022-10-16T04:42:08;1.00;0.00;0.00
68698;PMS7003;55680;48.850;2.310;2022-10-16T04:44:33;0.00;0.00;0.00
68698;PMS7003;55680;48.850;2.310;2022-10-16T04:46:59;0.00;0.00;0.00
68698;PMS7003;55680;48.850;2.310;2022-10-16T04:49:24;0.00;0.00;0.00
68698;PMS7003;55680;48.850;2.310;2022-10-16T04:51:49;0.00;0.00;0.00
68698;PMS7003;55680;48.850;2.310;2022-10-16T04:54:14;0.00;0.00;0.00
68698;PMS7003;55680;48.850;2.310;2022-10-16T04:56:39;0.00;0.00;0.00
68698;PMS7003;55680;48.850;2.310;2022-10-16T04:59:11;0.00;0.00;0.00
68698;PMS7003;55680;48.850;2.310;2022-10-16T05:01:37;0.00;0.00;0.00
68698;PMS7003;55680;48.850;2.310;2022-10-16T05:04:02;0.00;0.00;0.00
68698;PMS7003;55680;48.850;2.310;2022-10-16T05:06:27;0.00;0.00;0.00
68698;PMS7003;55680;48.850;2.310;2022-10-16T05:08:52;0.00;0.00;0.00
68698;PMS7003;55680;48.850;2.310;2022-10-16T05:11:17;0.00;0.00;0.00
68698;PMS7003;55680;48.850;2.310;2022-10-16T05:13:43;0.00;0.00;0.00
68698;PMS7003;55680;48.850;2.310;2022-10-16T05:16:08;0.00;0.00;0.00
68698;PMS7003;55680;48.850;2.310;2022-10-16T05:18:33;0.00;0.00;0.00
68698;PMS7003;55680;48.850;2.310;2022-10-16T05:20:58;0.00;0.00;0.00
68698;PMS7003;55680;48.850;2.310;2022-10-16T05:23:24;0.00;0.00;0.00
68698;PMS7003;55680;48.850;2.310;2022-10-16T05:25:53;0.00;0.00;0.00
68698;PMS7003;55680;48.850;2.310;2022-10-16T05:28:19;1.00;0.00;0.00
68698;PMS7003;55680;48.850;2.310;2022-10-16T05:30:44;0.00;0.00;0.00
68698;PMS7003;55680;48.850;2.310;2022-10-16T05:33:09;0.00;0.00;0.00
68698;PMS7003;55680;48.850;2.310;2022-10-16T05:35:34;0.00;0.00;0.00
68698;PMS7003;55680;48.850;2.310;2022-10-16T05:38:00;0.00;0.00;0.00
68698;PMS7003;55680;48.850;2.310;2022-10-16T05:40:25;0.00;0.00;0.00
68698;PMS7003;55680;48.850;2.310;2022-10-16T05:42:54;0.00;0.00;0.00
68698;PMS7003;55680;48.850;2.310;2022-10-16T05:45:19;0.00;0.00;0.00
68698;PMS7003;55680;48.850;2.310;2022-10-16T05:47:44;0.00;0.00;0.00
68698;PMS7003;55680;48.850;2.310;2022-10-16T05:50:09;0.00;0.00;0.00
68698;PMS7003;55680;48.850;2.310;2022-10-16T05:52:35;1.00;0.00;0.00
68698;PMS7003;55680;48.850;2.310;2022-10-16T05:55:00;0.00;0.00;0.00
68698;PMS7003;55680;48.850;2.310;2022-10-16T05:57:25;0.00;0.00;0.00
68698;PMS7003;55680;48.850;2.310;2022-10-16T05:59:50;0.00;0.00;0.00
68698;PMS7003;55680;48.850;2.310;2022-10-16T06:02:15;1.00;1.00;0.00
68698;PMS7003;55680;48.850;2.310;2022-10-16T06:04:41;0.00;0.00;0.00
68698;PMS7003;55680;48.850;2.310;2022-10-16T06:07:06;0.00;0.00;0.00
68698;PMS7003;55680;48.850;2.310;2022-10-16T06:09:31;0.00;0.00;0.00
68698;PMS7003;55680;48.850;2.310;2022-10-16T06:11:56;2.00;0.00;0.00
68698;PMS7003;55680;48.850;2.310;2022-10-16T06:14:22;0.00;0.00;0.00
68698;PMS7003;55680;48.850;2.310;2022-10-16T06:16:47;0.00;0.00;0.00
68698;PMS7003;55680;48.850;2.310;2022-10-16T06:19:12;0.67;0.00;0.00
68698;PMS7003;55680;48.850;2.310;2022-10-16T06:21:37;0.00;0.00;0.00
68698;PMS7003;55680;48.850;2.310;2022-10-16T06:24:03;0.00;0.00;0.00
68698;PMS7003;55680;48.850;2.310;2022-10-16T06:26:29;0.00;0.00;0.00
68698;PMS7003;55680;48.850;2.310;2022-10-16T06:28:55;0.00;0.00;0.00
68698;PMS7003;55680;48.850;2.310;2022-10-16T06:31:21;0.00;0.00;0.00
68698;PMS7003;55680;48.850;2.310;2022-10-16T06:33:49;0.00;0.00;0.00
68698;PMS7003;55680;48.850;2.310;2022-10-16T06:36:15;0.00;0.00;0.00
68698;PMS7003;55680;48.850;2.310;2022-10-16T06:38:42;0.00;0.00;0.00
68698;PMS7003;55680;48.850;2.310;2022-10-16T06:41:07;0.00;0.00;0.00
68698;PMS7003;55680;48.850;2.310;2022-10-16T06:43:34;0.00;0.00;0.00
68698;PMS7003;55680;48.850;2.310;2022-10-16T06:46:02;0.25;0.00;0.00
68698;PMS7003;55680;48.850;2.310;2022-10-16T06:48:28;0.00;0.00;0.00
68698;PMS7003;55680;48.850;2.310;2022-10-16T06:53:25;0.00;0.00;0.00
68698;PMS7003;55680;48.850;2.310;2022-10-16T06:55:50;0.00;0.00;0.00
68698;PMS7003;55680;48.850;2.310;2022-10-16T06:58:15;0.00;0.00;0.00
68698;PMS7003;55680;48.850;2.310;2022-10-16T07:00:41;0.00;0.00;0.00
68698;PMS7003;55680;48.850;2.310;2022-10-16T07:03:06;0.00;0.00;0.00
68698;PMS7003;55680;48.850;2.310;2022-10-16T07:05:31;0.25;0.00;0.00
68698;PMS7003;55680;48.850;2.310;2022-10-16T07:07:56;1.00;0.00;0.00
68698;PMS7003;55680;48.850;2.310;2022-10-16T07:10:22;1.00;0.00;0.00
68698;PMS7003;55680;48.850;2.310;2022-10-16T07:12:49;0.00;0.00;0.00
68698;PMS7003;55680;48.850;2.310;2022-10-16T07:15:14;0.00;0.00;0.00
68698;PMS7003;55680;48.850;2.310;2022-10-16T07:17:39;0.00;0.00;0.00
68698;PMS7003;55680;48.850;2.310;2022-10-16T07:20:04;0.00;0.00;0.00
68698;PMS7003;55680;48.850;2.310;2022-10-16T07:22:30;0.00;0.00;0.00
68698;PMS7003;55680;48.850;2.310;2022-10-16T07:24:55;0.00;0.00;0.00
68698;PMS7003;55680;48.850;2.310;2022-10-16T07:27:20;0.00;0.00;0.00
68698;PMS7003;55680;48.850;2.310;2022-10-16T07:29:48;0.00;0.00;0.00
68698;PMS7003;55680;48.850;2.310;2022-10-16T07:32:14;0.00;0.00;0.00
68698;PMS7003;55680;48.850;2.310;2022-10-16T07:34:39;0.00;0.00;0.00
68698;PMS7003;55680;48.850;2.310;2022-10-16T07:37:04;0.00;0.00;0.00
68698;PMS7003;55680;48.850;2.310;2022-10-16T07:39:29;0.00;0.00;0.00
68698;PMS7003;55680;48.850;2.310;2022-10-16T07:41:55;0.00;0.00;0.00
68698;PMS7003;55680;48.850;2.310;2022-10-16T07:44:20;0.00;0.00;0.00
68698;PMS7003;55680;48.850;2.310;2022-10-16T07:46:45;0.00;0.00;0.00
68698;PMS7003;55680;48.850;2.310;2022-10-16T07:49:11;1.00;0.00;0.00
68698;PMS7003;55680;48.850;2.310;2022-10-16T07:51:36;0.00;0.00;0.00
68698;PMS7003;55680;48.850;2.310;2022-10-16T07:54:03;0.00;0.00;0.00
68698;PMS7003;55680;48.850;2.310;2022-10-16T07:56:29;0.00;0.00;0.00
68698;PMS7003;55680;48.850;2.310;2022-10-16T07:58:55;0.50;0.50;0.25
68698;PMS7003;55680;48.850;2.310;2022-10-16T08:01:21;2.25;1.00;0.00
68698;PMS7003;55680;48.850;2.310;2022-10-16T08:03:47;0.25;0.25;0.00
68698;PMS7003;55680;48.850;2.310;2022-10-16T08:06:13;0.00;0.00;0.00
68698;PMS7003;55680;48.850;2.310;2022-10-16T08:08:38;0.00;0.00;0.00
68698;PMS7003;55680;48.850;2.310;2022-10-16T08:11:03;0.00;0.00;0.00
68698;PMS7003;55680;48.850;2.310;2022-10-16T08:13:29;0.00;0.00;0.00
68698;PMS7003;55680;48.850;2.310;2022-10-16T08:15:54;0.00;0.00;0.00
68698;PMS7003;55680;48.850;2.310;2022-10-16T08:18:20;0.00;0.00;0.00
68698;PMS7003;55680;48.850;2.310;2022-10-16T08:20:45;1.67;0.00;0.00
68698;PMS7003;55680;48.850;2.310;2022-10-16T08:23:11;0.33;0.33;0.00
68698;PMS7003;55680;48.850;2.310;2022-10-16T08:25:37;1.00;1.00;0.00
68698;PMS7003;55680;48.850;2.310;2022-10-16T08:28:03;0.00;0.00;0.00
68698;PMS7003;55680;48.850;2.310;2022-10-16T08:30:29;1.50;0.00;0.00
68698;PMS7003;55680;48.850;2.310;2022-10-16T08:32:55;1.25;0.25;0.00
68698;PMS7003;55680;48.850;2.310;2022-10-16T08:35:20;0.00;0.00;0.00
68698;PMS7003;55680;48.850;2.310;2022-10-16T08:37:45;0.00;0.00;0.00
68698;PMS7003;55680;48.850;2.310;2022-10-16T08:48:15;1.50;1.00;0.00
68698;PMS7003;55680;48.850;2.310;2022-10-16T08:50:42;0.00;0.00;0.00
68698;PMS7003;55680;48.850;2.310;2022-10-16T08:53:11;0.00;0.00;0.00
68698;PMS7003;55680;48.850;2.310;2022-10-16T08:55:43;1.00;1.00;0.00
68698;PMS7003;55680;48.850;2.310;2022-10-16T08:58:11;0.50;0.50;0.50
68698;PMS7003;55680;48.850;2.310;2022-10-16T09:00:36;2.00;0.25;0.00
68698;PMS7003;55680;48.850;2.310;2022-10-16T09:03:04;1.00;1.00;0.75
68698;PMS7003;55680;48.850;2.310;2022-10-16T09:11:31;1.00;1.00;1.00
68698;PMS7003;55680;48.850;2.310;2022-10-16T09:16:30;1.00;1.00;1.00
68698;PMS7003;55680;48.850;2.310;2022-10-16T09:21:35;1.75;1.75;1.25
68698;PMS7003;55680;48.850;2.310;2022-10-16T09:24:09;1.50;1.50;0.50
68698;PMS7003;55680;48.850;2.310;2022-10-16T09:26:35;1.00;1.00;1.00
68698;PMS7003;55680;48.850;2.310;2022-10-16T09:29:00;2.25;2.25;1.50
68698;PMS7003;55680;48.850;2.310;2022-10-16T09:31:25;2.33;1.00;0.33
68698;PMS7003;55680;48.850;2.310;2022-10-16T09:33:55;1.33;1.00;0.00
68698;PMS7003;55680;48.850;2.310;2022-10-16T09:36:22;1.50;1.50;1.25
68698;PMS7003;55680;48.850;2.310;2022-10-16T09:38:48;1.50;1.50;0.75
68698;PMS7003;55680;48.850;2.310;2022-10-16T09:43:41;0.25;0.25;0.25
68698;PMS7003;55680;48.850;2.310;2022-10-16T09:46:08;1.00;1.00;1.00
68698;PMS7003;55680;48.850;2.310;2022-10-16T09:51:00;1.33;1.33;0.67
68698;PMS7003;55680;48.850;2.310;2022-10-16T09:53:26;1.75;1.75;1.00
68698;PMS7003;55680;48.850;2.310;2022-10-16T09:56:02;2.00;2.00;2.00
68698;PMS7003;55680;48.850;2.310;2022-10-16T09:58:28;1.50;1.50;1.00
68698;PMS7003;55680;48.850;2.310;2022-10-16T10:00:54;2.00;1.00;1.00
68698;PMS7003;55680;48.850;2.310;2022-10-16T10:03:36;1.00;1.00;0.75
68698;PMS7003;55680;48.850;2.310;2022-10-16T10:06:15;1.00;1.00;0.00
68698;PMS7003;55680;48.850;2.310;2022-10-16T10:08:52;1.00;1.00;0.75
68698;PMS7003;55680;48.850;2.310;2022-10-16T10:11:17;0.75;0.75;0.75
68698;PMS7003;55680;48.850;2.310;2022-10-16T10:13:42;2.33;1.67;0.67
68698;PMS7003;55680;48.850;2.310;2022-10-16T10:16:08;0.50;0.25;0.00
68698;PMS7003;55680;48.850;2.310;2022-10-16T10:18:33;1.50;1.00;0.75
68698;PMS7003;55680;48.850;2.310;2022-10-16T10:20:59;1.75;1.75;0.75
68698;PMS7003;55680;48.850;2.310;2022-10-16T10:23:26;2.75;1.00;0.75
68698;PMS7003;55680;48.850;2.310;2022-10-16T10:25:54;0.75;0.75;0.00
68698;PMS7003;55680;48.850;2.310;2022-10-16T10:28:31;2.00;0.50;0.25
68698;PMS7003;55680;48.850;2.310;2022-10-16T10:31:20;0.75;0.75;0.25
68698;PMS7003;55680;48.850;2.310;2022-10-16T10:33:52;1.50;1.50;0.75
68698;PMS7003;55680;48.850;2.310;2022-10-16T10:39:01;1.00;1.00;0.00
68698;PMS7003;55680;48.850;2.310;2022-10-16T10:41:34;1.50;1.50;0.75
68698;PMS7003;55680;48.850;2.310;2022-10-16T10:46:41;0.00;0.00;0.00
68698;PMS7003;55680;48.850;2.310;2022-10-16T10:51:46;0.00;0.00;0.00
68698;PMS7003;55680;48.850;2.310;2022-10-16T10:54:27;0.25;0.25;0.00
68698;PMS7003;55680;48.850;2.310;2022-10-16T11:01:56;0.50;0.50;0.00
68698;PMS7003;55680;48.850;2.310;2022-10-16T11:07:27;0.00;0.00;0.00
68698;PMS7003;55680;48.850;2.310;2022-10-16T11:10:15;0.25;0.00;0.00
68698;PMS7003;55680;48.850;2.310;2022-10-16T11:12:42;0.50;0.50;0.00
68698;PMS7003;55680;48.850;2.310;2022-10-16T11:15:17;0.25;0.25;0.00
68698;PMS7003;55680;48.850;2.310;2022-10-16T11:20:29;0.00;0.00;0.00
68698;PMS7003;55680;48.850;2.310;2022-10-16T11:22:57;0.00;0.00;0.00
68698;PMS7003;55680;48.850;2.310;2022-10-16T11:25:28;0.00;0.00;0.00
68698;PMS7003;55680;48.850;2.310;2022-10-16T11:27:59;0.00;0.00;0.00
68698;PMS7003;55680;48.850;2.310;2022-10-16T11:30:30;0.00;0.00;0.00
68698;PMS7003;55680;48.850;2.310;2022-10-16T11:35:25;0.00;0.00;0.00
68698;PMS7003;55680;48.850;2.310;2022-10-16T11:37:56;2.00;0.00;0.00
68698;PMS7003;55680;48.850;2.310;2022-10-16T11:42:50;0.00;0.00;0.00
68698;PMS7003;55680;48.850;2.310;2022-10-16T11:45:33;0.00;0.00;0.00
68698;PMS7003;55680;48.850;2.310;2022-10-16T11:48:07;0.50;0.00;0.00
68698;PMS7003;55680;48.850;2.310;2022-10-16T11:50:40;1.50;0.25;0.00
68698;PMS7003;55680;48.850;2.310;2022-10-16T11:53:16;0.00;0.00;0.00
68698;PMS7003;55680;48.850;2.310;2022-10-16T11:55:46;0.00;0.00;0.00
68698;PMS7003;55680;48.850;2.310;2022-10-16T12:00:39;0.00;0.00;0.00
68698;PMS7003;55680;48.850;2.310;2022-10-16T12:08:15;0.25;0.00;0.00
68698;PMS7003;55680;48.850;2.310;2022-10-16T12:10:41;0.00;0.00;0.00
68698;PMS7003;55680;48.850;2.310;2022-10-16T12:15:51;0.00;0.00;0.00
68698;PMS7003;55680;48.850;2.310;2022-10-16T12:18:22;0.00;0.00;0.00
68698;PMS7003;55680;48.850;2.310;2022-10-16T12:20:54;0.00;0.00;0.00
68698;PMS7003;55680;48.850;2.310;2022-10-16T12:23:23;0.00;0.00;0.00
68698;PMS7003;55680;48.850;2.310;2022-10-16T12:25:53;0.00;0.00;0.00
68698;PMS7003;55680;48.850;2.310;2022-10-16T12:28:21;0.25;0.25;0.00
68698;PMS7003;55680;48.850;2.310;2022-10-16T12:30:54;0.00;0.00;0.00
68698;PMS7003;55680;48.850;2.310;2022-10-16T12:33:30;0.25;0.25;0.00
68698;PMS7003;55680;48.850;2.310;2022-10-16T12:35:57;0.00;0.00;0.00
68698;PMS7003;55680;48.850;2.310;2022-10-16T12:38:45;0.00;0.00;0.00
68698;PMS7003;55680;48.850;2.310;2022-10-16T12:41:11;0.00;0.00;0.00
68698;PMS7003;55680;48.850;2.310;2022-10-16T12:43:40;0.25;0.00;0.00
68698;PMS7003;55680;48.850;2.310;2022-10-16T12:48:39;0.50;0.00;0.00
68698;PMS7003;55680;48.850;2.310;2022-10-16T12:53:36;0.75;0.75;0.75
68698;PMS7003;55680;48.850;2.310;2022-10-16T12:56:23;1.33;0.33;0.00
68698;PMS7003;55680;48.850;2.310;2022-10-16T13:04:10;2.00;2.00;0.00
68698;PMS7003;55680;48.850;2.310;2022-10-16T13:09:16;0.00;0.00;0.00
68698;PMS7003;55680;48.850;2.310;2022-10-16T13:11:47;0.00;0.00;0.00
68698;PMS7003;55680;48.850;2.310;2022-10-16T13:14:34;0.75;0.75;0.00
68698;PMS7003;55680;48.850;2.310;2022-10-16T13:22:29;0.75;0.25;0.25
68698;PMS7003;55680;48.850;2.310;2022-10-16T13:27:40;0.50;0.50;0.50
68698;PMS7003;55680;48.850;2.310;2022-10-16T13:30:18;1.50;1.50;1.00
68698;PMS7003;55680;48.850;2.310;2022-10-16T13:32:48;1.00;1.00;0.00
68698;PMS7003;55680;48.850;2.310;2022-10-16T13:35:27;1.25;1.25;0.75
68698;PMS7003;55680;48.850;2.310;2022-10-16T13:38:10;1.00;1.00;0.50
68698;PMS7003;55680;48.850;2.310;2022-10-16T13:40:36;0.50;0.50;0.50
68698;PMS7003;55680;48.850;2.310;2022-10-16T13:43:01;1.25;1.00;0.75
68698;PMS7003;55680;48.850;2.310;2022-10-16T13:45:27;3.00;1.00;1.00
68698;PMS7003;55680;48.850;2.310;2022-10-16T13:48:05;1.67;1.00;0.67
68698;PMS7003;55680;48.850;2.310;2022-10-16T13:50:30;0.00;0.00;0.00
68698;PMS7003;55680;48.850;2.310;2022-10-16T13:53:05;0.75;0.75;0.75
68698;PMS7003;55680;48.850;2.310;2022-10-16T13:55:30;0.75;0.75;0.75
68698;PMS7003;55680;48.850;2.310;2022-10-16T13:58:04;0.50;0.50;0.00
68698;PMS7003;55680;48.850;2.310;2022-10-16T14:00:29;0.50;0.50;0.50
68698;PMS7003;55680;48.850;2.310;2022-10-16T14:03:05;1.75;0.50;0.25
68698;PMS7003;55680;48.850;2.310;2022-10-16T14:05:31;2.00;1.75;0.75
68698;PMS7003;55680;48.850;2.310;2022-10-16T14:07:57;1.00;1.00;0.75
68698;PMS7003;55680;48.850;2.310;2022-10-16T14:10:32;0.50;0.50;0.00
68698;PMS7003;55680;48.850;2.310;2022-10-16T14:13:07;3.00;1.50;0.75
68698;PMS7003;55680;48.850;2.310;2022-10-16T14:15:34;1.50;1.50;0.75
68698;PMS7003;55680;48.850;2.310;2022-10-16T14:18:00;0.75;0.75;0.00
68698;PMS7003;55680;48.850;2.310;2022-10-16T14:20:26;0.75;0.75;0.75
68698;PMS7003;55680;48.850;2.310;2022-10-16T14:22:58;1.75;0.75;0.75
68698;PMS7003;55680;48.850;2.310;2022-10-16T14:25:25;0.75;0.75;0.75
68698;PMS7003;55680;48.850;2.310;2022-10-16T14:28:01;2.00;2.00;0.75
68698;PMS7003;55680;48.850;2.310;2022-10-16T14:30:27;1.50;1.50;0.50
68698;PMS7003;55680;48.850;2.310;2022-10-16T14:32:53;1.25;1.25;1.00
68698;PMS7003;55680;48.850;2.310;2022-10-16T14:35:35;0.25;0.25;0.25
68698;PMS7003;55680;48.850;2.310;2022-10-16T14:38:01;2.00;1.25;0.75
68698;PMS7003;55680;48.850;2.310;2022-10-16T14:40:32;1.00;1.00;0.50
68698;PMS7003;55680;48.850;2.310;2022-10-16T14:42:58;2.25;2.25;1.75
68698;PMS7003;55680;48.850;2.310;2022-10-16T14:45:24;2.50;2.50;1.75
68698;PMS7003;55680;48.850;2.310;2022-10-16T14:47:54;1.00;1.00;0.75
68698;PMS7003;55680;48.850;2.310;2022-10-16T14:50:21;1.25;1.25;0.75
68698;PMS7003;55680;48.850;2.310;2022-10-16T14:52:46;2.50;2.50;2.00
68698;PMS7003;55680;48.850;2.310;2022-10-16T14:55:12;0.67;0.67;0.67
68698;PMS7003;55680;48.850;2.310;2022-10-16T14:57:37;2.50;0.75;0.75
68698;PMS7003;55680;48.850;2.310;2022-10-16T15:00:06;1.50;1.25;0.75
68698;PMS7003;55680;48.850;2.310;2022-10-16T15:02:35;2.75;2.75;2.00
68698;PMS7003;55680;48.850;2.310;2022-10-16T15:05:12;2.00;2.00;2.00
68698;PMS7003;55680;48.850;2.310;2022-10-16T15:07:37;2.00;2.00;0.75
68698;PMS7003;55680;48.850;2.310;2022-10-16T15:10:03;1.67;1.67;0.67
68698;PMS7003;55680;48.850;2.310;2022-10-16T15:12:28;1.75;1.75;1.00
68698;PMS7003;55680;48.850;2.310;2022-10-16T15:14:53;1.67;1.67;1.33
68698;PMS7003;55680;48.850;2.310;2022-10-16T15:17:19;3.50;1.75;1.25
68698;PMS7003;55680;48.850;2.310;2022-10-16T15:19:44;1.33;1.33;1.00
68698;PMS7003;55680;48.850;2.310;2022-10-16T15:22:10;1.33;1.33;0.67
68698;PMS7003;55680;48.850;2.310;2022-10-16T15:24:36;2.25;2.25;0.75
68698;PMS7003;55680;48.850;2.310;2022-10-16T15:27:01;2.00;2.00;1.67
68698;PMS7003;55680;48.850;2.310;2022-10-16T15:29:26;0.67;0.67;0.67
68698;PMS7003;55680;48.850;2.310;2022-10-16T15:31:51;1.25;1.25;0.75
68698;PMS7003;55680;48.850;2.310;2022-10-16T15:34:16;4.00;2.33;1.67
68698;PMS7003;55680;48.850;2.310;2022-10-16T15:36:44;5.50;4.25;2.50
68698;PMS7003;55680;48.850;2.310;2022-10-16T15:39:16;3.00;3.00;1.00
68698;PMS7003;55680;48.850;2.310;2022-10-16T15:41:42;2.75;1.75;1.75
68698;PMS7003;55680;48.850;2.310;2022-10-16T15:44:07;2.25;2.25;1.50
68698;PMS7003;55680;48.850;2.310;2022-10-16T15:46:33;2.67;2.67;2.00
68698;PMS7003;55680;48.850;2.310;2022-10-16T15:48:59;3.25;3.25;2.75
68698;PMS7003;55680;48.850;2.310;2022-10-16T15:51:25;2.75;2.00;2.00
68698;PMS7003;55680;48.850;2.310;2022-10-16T15:53:53;1.75;1.75;0.75